Time;durP1;ratioP1;P1;durP2;ratioP2;P2;SDS_P1;SDS_P2;PMS_P1;PMS_P2;Temp;Humidity;BMP_temperature;BMP_pressure;BME280_temperature;BME280_humidity;BME280_pressure;Samples;Min_cycle;Max_cycle;Signal;HPM_P1;HPM_P2
2021/09/26 00:01:44;;;;;;;13.23;12.03;;;16.10;99.90;;;;;;5047484;28;20184;-67
2021/09/26 00:04:09;;;;;;;12.47;11.47;;;16.10;99.90;;;;;;5055065;28;20195;-67
2021/09/26 00:06:35;;;;;;;13.53;12.27;;;16.20;99.90;;;;;;5043640;28;20665;-67
2021/09/26 00:09:01;;;;;;;12.70;11.60;;;16.20;99.90;;;;;;5034662;28;20179;-66
2021/09/26 00:11:26;;;;;;;12.07;11.07;;;16.20;99.90;;;;;;5043727;28;20246;-67
2021/09/26 00:13:53;;;;;;;11.87;10.77;;;16.30;99.90;;;;;;5054832;28;20177;-68
2021/09/26 00:16:19;;;;;;;11.30;10.40;;;16.40;99.90;;;;;;5045708;28;20191;-71
2021/09/26 00:18:44;;;;;;;12.10;10.83;;;16.40;99.90;;;;;;5033363;28;20548;-69
2021/09/26 00:21:10;;;;;;;11.10;10.20;;;16.50;99.90;;;;;;5040061;28;20179;-67
2021/09/26 00:23:36;;;;;;;11.13;10.13;;;16.50;99.90;;;;;;5054554;28;20209;-67
2021/09/26 00:26:04;;;;;;;11.70;10.73;;;16.60;99.90;;;;;;5050159;28;20230;-67
2021/09/26 00:28:30;;;;;;;12.47;11.47;;;16.60;99.90;;;;;;5034567;28;20682;-67
2021/09/26 00:30:57;;;;;;;11.63;10.73;;;16.60;99.90;;;;;;5036631;28;20179;-67
2021/09/26 00:33:23;;;;;;;12.73;11.63;;;16.60;99.90;;;;;;5054733;28;20202;-69
2021/09/26 00:35:49;;;;;;;12.57;11.47;;;16.60;99.90;;;;;;5034378;28;20183;-68
2021/09/26 00:38:18;;;;;;;12.53;11.50;;;16.60;99.90;;;;;;5033254;28;20186;-66
2021/09/26 00:40:44;;;;;;;13.53;12.20;;;16.60;99.90;;;;;;5051452;28;20191;-67
2021/09/26 00:43:10;;;;;;;12.37;11.23;;;16.60;99.90;;;;;;5054238;28;20230;-67
2021/09/26 00:45:35;;;;;;;13.43;12.13;;;16.60;99.90;;;;;;5036485;28;20756;-66
2021/09/26 00:48:01;;;;;;;12.40;11.50;;;16.60;99.90;;;;;;5034052;28;20191;-68
2021/09/26 00:50:28;;;;;;;14.07;12.97;;;16.70;99.90;;;;;;5042075;28;20225;-69
2021/09/26 00:52:54;;;;;;;13.40;12.30;;;16.70;99.90;;;;;;5034156;28;20159;-67
2021/09/26 00:55:20;;;;;;;12.93;11.87;;;16.70;99.90;;;;;;5047751;28;20187;-68
2021/09/26 00:57:45;;;;;;;14.10;12.97;;;16.60;99.90;;;;;;5054101;28;20187;-69
2021/09/26 01:00:14;;;;;;;13.00;12.00;;;16.70;99.90;;;;;;5040960;28;20224;-66
2021/09/26 01:02:39;;;;;;;13.27;12.17;;;16.60;99.90;;;;;;5041937;28;20252;-68
2021/09/26 01:05:08;;;;;;;14.37;13.37;;;16.60;99.90;;;;;;5053810;28;20234;-66
2021/09/26 01:07:56;;;;;;;12.93;11.93;;;16.60;99.90;;;;;;5046614;28;20563;-69
2021/09/26 01:10:37;;;;;;;12.67;11.67;;;16.60;99.90;;;;;;5033985;28;20617;-68
2021/09/26 01:13:08;;;;;;;13.47;12.37;;;16.60;99.90;;;;;;5043895;28;20262;-69
2021/09/26 01:16:11;;;;;;;13.03;12.03;;;16.60;99.90;;;;;;5053815;28;20221;-70
2021/09/26 01:19:04;;;;;;;12.70;11.70;;;16.60;99.90;;;;;;5035996;28;20191;-69
2021/09/26 01:22:05;;;;;;;12.77;11.73;;;16.50;99.90;;;;;;5032426;28;20179;-69
2021/09/26 01:24:59;;;;;;;13.07;11.87;;;16.50;99.90;;;;;;5013680;28;20206;-70
2021/09/26 01:28:00;;;;;;;11.73;10.93;;;16.50;99.90;;;;;;5021110;28;20659;-68
2021/09/26 01:30:35;;;;;;;11.13;10.23;;;16.50;99.90;;;;;;5048265;28;20226;-70
2021/09/26 01:33:10;;;;;;;11.80;10.80;;;16.40;99.90;;;;;;5032033;28;20178;-69
2021/09/26 01:35:53;;;;;;;12.30;11.10;;;16.40;99.90;;;;;;5038919;28;20170;-69
2021/09/26 01:38:34;;;;;;;13.30;12.10;;;16.40;99.90;;;;;;5052088;28;20580;-69
2021/09/26 01:41:15;;;;;;;12.10;11.00;;;16.40;99.90;;;;;;5044112;28;20186;-70
2021/09/26 01:43:44;;;;;;;11.63;10.73;;;16.40;99.90;;;;;;5033128;28;20203;-69
2021/09/26 01:46:13;;;;;;;11.60;10.60;;;16.50;99.90;;;;;;5042294;28;20195;-69
2021/09/26 01:48:45;;;;;;;13.00;10.60;;;16.50;99.90;;;;;;5052851;28;20674;-68
2021/09/26 01:51:13;;;;;;;11.47;10.53;;;16.60;99.90;;;;;;5043513;28;20183;-69
2021/09/26 01:53:44;;;;;;;11.10;10.10;;;16.60;99.90;;;;;;5031701;28;20266;-69
2021/09/26 01:56:15;;;;;;;13.30;10.90;;;16.70;99.90;;;;;;5041031;28;20213;-69
2021/09/26 01:58:44;;;;;;;11.60;10.60;;;16.80;99.90;;;;;;5046995;28;20183;-68
2021/09/26 02:01:10;;;;;;;11.77;10.87;;;16.80;99.90;;;;;;5032631;28;20171;-69
2021/09/26 02:03:38;;;;;;;12.97;11.17;;;16.80;99.90;;;;;;5035550;28;20678;-69
2021/09/26 02:06:04;;;;;;;11.57;10.63;;;16.80;99.90;;;;;;5052626;28;20195;-69
2021/09/26 02:08:30;;;;;;;11.97;10.87;;;16.90;99.90;;;;;;5038062;28;20639;-69
2021/09/26 02:10:57;;;;;;;12.70;11.37;;;16.90;99.90;;;;;;5052360;28;20174;-69
2021/09/26 02:13:24;;;;;;;11.37;10.47;;;16.90;99.90;;;;;;5036406;28;20184;-69
2021/09/26 02:15:51;;;;;;;10.87;10.00;;;16.90;99.90;;;;;;5032441;28;20175;-69
2021/09/26 02:18:18;;;;;;;14.20;10.40;;;16.90;99.90;;;;;;5045728;28;20182;-70
2021/09/26 02:20:45;;;;;;;11.40;10.50;;;17.00;99.90;;;;;;5050635;28;20179;-69
2021/09/26 02:23:11;;;;;;;12.23;11.17;;;16.90;99.90;;;;;;5038935;28;20195;-69
2021/09/26 02:25:39;;;;;;;11.37;10.40;;;17.00;99.90;;;;;;5032451;28;20548;-69
2021/09/26 02:28:06;;;;;;;11.60;10.63;;;17.00;99.90;;;;;;5035430;28;20623;-70
2021/09/26 02:30:32;;;;;;;11.40;10.47;;;17.00;99.90;;;;;;5031956;28;20222;-67
2021/09/26 02:32:58;;;;;;;12.80;10.40;;;17.00;99.90;;;;;;5044674;28;20179;-69
2021/09/26 02:35:23;;;;;;;12.33;11.07;;;17.00;99.90;;;;;;5052334;28;20221;-69
2021/09/26 02:37:49;;;;;;;14.13;10.10;;;17.00;99.90;;;;;;5037505;28;20207;-69
2021/09/26 02:40:16;;;;;;;12.10;11.00;;;17.00;99.90;;;;;;5032058;28;20252;-69
2021/09/26 02:42:56;;;;;;;11.77;10.70;;;17.10;99.90;;;;;;5042844;28;20171;-69
2021/09/26 02:45:37;;;;;;;12.27;11.27;;;17.10;99.90;;;;;;5044178;28;20182;-69
2021/09/26 02:48:21;;;;;;;11.70;10.57;;;17.00;99.90;;;;;;5031959;28;20199;-68
2021/09/26 02:50:48;;;;;;;12.00;11.00;;;17.10;99.90;;;;;;5040378;28;20606;-69
2021/09/26 02:53:15;;;;;;;12.30;11.03;;;17.10;99.90;;;;;;5051973;28;20170;-69
2021/09/26 02:55:44;;;;;;;12.17;11.07;;;17.10;99.90;;;;;;5050072;28;20179;-69
2021/09/26 02:58:10;;;;;;;12.77;11.73;;;17.20;99.90;;;;;;5050578;28;20175;-70
2021/09/26 03:00:39;;;;;;;12.87;11.77;;;17.20;99.90;;;;;;5041764;28;20523;-69
2021/09/26 03:03:11;;;;;;;12.10;11.13;;;17.20;99.90;;;;;;5031707;28;20178;-68
2021/09/26 03:05:37;;;;;;;11.93;10.83;;;17.20;99.90;;;;;;5040511;28;20167;-68
2021/09/26 03:08:04;;;;;;;12.27;11.17;;;17.30;99.90;;;;;;5050277;28;20186;-69
2021/09/26 03:10:30;;;;;;;12.17;11.20;;;17.30;99.90;;;;;;5043569;28;20186;-69
2021/09/26 03:12:56;;;;;;;12.37;11.47;;;17.30;99.90;;;;;;5031617;28;20172;-69
2021/09/26 03:15:22;;;;;;;13.13;12.13;;;17.20;99.90;;;;;;5035946;28;20648;-68
2021/09/26 03:17:47;;;;;;;13.43;12.23;;;17.30;99.90;;;;;;5051412;28;20244;-68
2021/09/26 03:20:13;;;;;;;12.17;11.17;;;17.30;99.90;;;;;;5045618;28;20176;-68
2021/09/26 03:22:38;;;;;;;12.37;11.37;;;17.20;99.90;;;;;;5031605;28;20178;-69
2021/09/26 03:25:05;;;;;;;13.03;11.90;;;17.20;99.90;;;;;;5051403;28;20202;-69
2021/09/26 03:27:31;;;;;;;12.57;11.23;;;17.10;99.90;;;;;;5051387;28;20194;-69
2021/09/26 03:29:56;;;;;;;12.50;11.33;;;17.10;99.90;;;;;;5049425;28;20179;-69
2021/09/26 03:32:22;;;;;;;12.23;11.10;;;17.10;99.90;;;;;;5051644;28;20171;-69
2021/09/26 03:34:48;;;;;;;13.03;11.87;;;17.10;99.90;;;;;;5048843;28;20186;-69
2021/09/26 03:37:14;;;;;;;13.23;12.13;;;17.10;99.90;;;;;;5096956;23;20263;-67
2021/09/26 03:39:40;;;;;;;14.67;13.00;;;17.00;99.90;;;;;;5071299;28;20185;-68
2021/09/26 03:42:05;;;;;;;14.90;13.50;;;16.80;99.90;;;;;;5051836;28;20579;-69
2021/09/26 03:44:31;;;;;;;15.30;13.80;;;16.70;99.90;;;;;;5052356;28;20214;-68
2021/09/26 03:46:57;;;;;;;15.77;14.10;;;16.50;99.90;;;;;;5049885;28;20200;-67
2021/09/26 03:49:24;;;;;;;17.40;15.80;;;16.40;99.90;;;;;;5063506;28;20251;-67
2021/09/26 03:51:50;;;;;;;17.73;15.47;;;16.30;99.90;;;;;;5062273;28;20179;-65
2021/09/26 03:54:17;;;;;;;18.73;16.50;;;16.10;99.90;;;;;;5066159;28;20266;-66
2021/09/26 03:56:43;;;;;;;17.50;15.87;;;16.00;99.90;;;;;;5062429;28;20622;-67
2021/09/26 03:59:10;;;;;;;20.37;18.43;;;15.90;99.90;;;;;;5049695;28;20202;-66
2021/09/26 04:01:37;;;;;;;18.37;16.47;;;15.90;99.90;;;;;;5055312;28;20522;-67
2021/09/26 04:04:02;;;;;;;24.37;19.90;;;15.90;99.90;;;;;;5071012;28;20198;-68
2021/09/26 04:06:28;;;;;;;29.60;21.00;;;15.90;99.90;;;;;;5066888;28;20219;-67
2021/09/26 04:08:54;;;;;;;27.47;24.23;;;15.80;99.90;;;;;;5050771;28;20183;-66
2021/09/26 04:11:20;;;;;;;28.47;25.13;;;15.80;99.90;;;;;;5052955;28;20205;-66
2021/09/26 04:13:46;;;;;;;26.53;22.60;;;15.80;99.90;;;;;;5069759;28;20210;-66
2021/09/26 04:16:12;;;;;;;33.97;24.97;;;15.80;99.90;;;;;;5070284;28;20195;-66
2021/09/26 04:18:37;;;;;;;31.60;27.83;;;15.80;99.90;;;;;;5050845;28;20187;-68
2021/09/26 04:21:03;;;;;;;30.47;27.27;;;15.80;99.90;;;;;;5067547;28;20232;-66
2021/09/26 04:23:29;;;;;;;32.90;27.00;;;15.80;99.90;;;;;;5070910;28;20198;-66
2021/09/26 04:25:55;;;;;;;33.90;29.80;;;15.80;99.90;;;;;;5055136;28;20183;-67
2021/09/26 04:28:20;;;;;;;30.73;27.43;;;15.90;99.90;;;;;;5055846;28;20285;-66
2021/09/26 04:30:46;;;;;;;31.50;27.93;;;16.00;99.90;;;;;;5071052;28;20166;-67
2021/09/26 04:33:12;;;;;;;29.27;24.97;;;16.00;99.90;;;;;;5070966;28;20178;-67
2021/09/26 04:35:37;;;;;;;32.87;26.47;;;15.90;99.90;;;;;;5054475;28;20273;-67
2021/09/26 04:38:03;;;;;;;31.53;28.20;;;15.90;99.90;;;;;;5071512;28;20248;-67
2021/09/26 04:40:29;;;;;;;35.40;29.17;;;15.90;99.90;;;;;;5074075;28;20227;-66
2021/09/26 04:42:54;;;;;;;52.13;48.07;;;15.90;99.90;;;;;;5058160;28;20182;-67
2021/09/26 04:45:20;;;;;;;63.60;58.93;;;16.00;99.90;;;;;;5051926;28;20186;-67
2021/09/26 04:47:46;;;;;;;47.47;43.67;;;16.00;99.90;;;;;;5067614;28;20234;-66
2021/09/26 04:50:12;;;;;;;31.43;28.27;;;16.00;99.90;;;;;;5074035;28;20182;-67
2021/09/26 04:52:38;;;;;;;30.13;27.03;;;15.90;99.90;;;;;;5060578;28;20250;-67
2021/09/26 04:55:05;;;;;;;34.37;30.90;;;15.90;99.90;;;;;;5053971;28;20174;-67
2021/09/26 04:57:31;;;;;;;42.40;38.90;;;15.80;99.90;;;;;;5064071;28;20213;-66
2021/09/26 04:59:57;;;;;;;40.23;36.40;;;15.80;99.90;;;;;;5073547;28;20174;-66
2021/09/26 05:02:22;;;;;;;32.23;26.47;;;15.70;99.90;;;;;;5065343;28;20185;-66
2021/09/26 05:04:48;;;;;;;38.30;31.03;;;15.70;99.90;;;;;;5053608;28;20207;-67
2021/09/26 05:07:14;;;;;;;35.77;32.30;;;15.70;99.90;;;;;;5060223;28;20198;-67
2021/09/26 05:09:40;;;;;;;36.30;29.47;;;15.70;99.90;;;;;;5073567;28;20182;-66
2021/09/26 05:12:06;;;;;;;42.23;38.17;;;15.70;99.90;;;;;;5069049;28;20659;-67
2021/09/26 05:14:31;;;;;;;36.17;31.93;;;15.70;99.90;;;;;;5055264;28;20189;-67
2021/09/26 05:16:57;;;;;;;33.70;29.20;;;15.70;99.90;;;;;;5073536;28;20206;-66
2021/09/26 05:19:22;;;;;;;38.83;31.37;;;15.80;99.90;;;;;;5073141;28;20185;-67
2021/09/26 05:21:48;;;;;;;43.30;38.80;;;15.80;99.90;;;;;;5053711;28;20179;-66
2021/09/26 05:24:14;;;;;;;48.90;42.83;;;15.80;99.90;;;;;;5053588;28;20753;-67
2021/09/26 05:26:39;;;;;;;42.10;37.60;;;15.80;99.90;;;;;;5071148;28;20229;-67
2021/09/26 05:29:06;;;;;;;45.43;39.23;;;15.90;99.90;;;;;;5073226;28;20583;-66
2021/09/26 05:31:33;;;;;;;46.67;41.27;;;15.90;99.90;;;;;;5056091;28;20174;-66
2021/09/26 05:33:59;;;;;;;40.77;36.47;;;15.90;99.90;;;;;;5053236;28;20179;-67
2021/09/26 05:36:25;;;;;;;42.27;38.17;;;15.90;99.90;;;;;;5067598;28;20224;-66
2021/09/26 05:38:51;;;;;;;47.50;42.83;;;15.90;99.90;;;;;;5073317;28;20296;-66
2021/09/26 05:41:17;;;;;;;65.73;60.00;;;15.90;99.90;;;;;;5060035;28;20201;-67
2021/09/26 05:43:43;;;;;;;79.43;73.57;;;15.90;99.90;;;;;;5062692;28;20666;-67
2021/09/26 05:46:09;;;;;;;49.70;44.63;;;15.90;99.90;;;;;;5073055;28;20181;-67
2021/09/26 05:48:35;;;;;;;42.60;38.23;;;15.90;99.90;;;;;;5064692;28;20666;-66
2021/09/26 05:51:00;;;;;;;37.87;33.63;;;15.90;99.90;;;;;;5052569;28;20479;-66
2021/09/26 05:53:26;;;;;;;37.00;31.93;;;16.00;99.90;;;;;;5059162;28;20573;-66
2021/09/26 05:55:53;;;;;;;36.53;32.13;;;16.00;99.90;;;;;;5072923;28;20656;-67
2021/09/26 05:58:20;;;;;;;42.20;31.50;;;16.10;99.90;;;;;;5068955;28;20209;-67
2021/09/26 06:00:46;;;;;;;39.57;35.77;;;16.10;99.90;;;;;;5072198;28;20181;-68
2021/09/26 06:03:13;;;;;;;33.53;28.67;;;16.10;99.90;;;;;;5057519;28;20189;-67
2021/09/26 06:05:40;;;;;;;33.47;29.93;;;16.00;99.90;;;;;;5052945;28;20171;-67
2021/09/26 06:08:06;;;;;;;30.30;27.13;;;16.00;99.90;;;;;;5053584;28;20209;-67
2021/09/26 06:10:33;;;;;;;31.40;28.17;;;16.00;99.90;;;;;;5052551;28;20250;-67
2021/09/26 06:12:59;;;;;;;31.10;27.83;;;16.00;99.90;;;;;;5063711;28;20174;-67
2021/09/26 06:15:24;;;;;;;35.10;31.33;;;16.00;99.90;;;;;;5072433;28;20167;-67
2021/09/26 06:17:50;;;;;;;33.67;30.07;;;16.10;99.90;;;;;;5062526;28;20265;-67
2021/09/26 06:20:16;;;;;;;46.93;42.67;;;16.10;99.90;;;;;;5052132;28;20167;-67
2021/09/26 06:22:42;;;;;;;32.87;29.37;;;16.10;99.90;;;;;;5059948;28;20213;-66
2021/09/26 06:25:08;;;;;;;30.40;27.13;;;16.10;99.90;;;;;;5070691;28;20674;-67
2021/09/26 06:27:33;;;;;;;100.87;94.77;;;16.10;99.90;;;;;;5066026;28;20191;-66
2021/09/26 06:29:59;;;;;;;90.60;85.00;;;16.20;99.90;;;;;;5054901;28;20201;-66
2021/09/26 06:32:26;;;;;;;66.67;62.13;;;16.20;99.90;;;;;;5072358;28;20166;-67
2021/09/26 06:34:52;;;;;;;26.87;24.27;;;16.20;99.90;;;;;;5067561;28;20190;-66
2021/09/26 06:37:18;;;;;;;36.57;30.87;;;16.30;99.90;;;;;;5070641;28;20210;-66
2021/09/26 06:39:44;;;;;;;31.13;28.23;;;16.30;99.90;;;;;;5067936;28;20182;-66
2021/09/26 06:42:09;;;;;;;35.07;31.77;;;16.40;99.90;;;;;;5051989;28;20171;-66
2021/09/26 06:44:35;;;;;;;29.60;24.90;;;16.40;99.90;;;;;;5052370;28;20217;-66
2021/09/26 06:47:01;;;;;;;26.53;23.97;;;16.60;99.90;;;;;;5071643;28;20193;-67
2021/09/26 06:49:27;;;;;;;31.93;25.33;;;16.60;99.90;;;;;;5070314;28;20177;-67
2021/09/26 06:51:53;;;;;;;28.70;25.97;;;16.70;99.90;;;;;;5071222;28;20177;-66
2021/09/26 06:54:18;;;;;;;22.40;20.10;;;16.90;99.90;;;;;;5071485;28;20202;-67
2021/09/26 06:56:44;;;;;;;20.90;18.97;;;17.10;99.90;;;;;;5056939;28;20288;-67
2021/09/26 06:59:10;;;;;;;19.47;17.77;;;17.30;99.90;;;;;;5071382;28;20640;-67
2021/09/26 07:01:36;;;;;;;20.53;17.30;;;17.50;99.90;;;;;;5055334;28;20189;-67
2021/09/26 07:04:03;;;;;;;18.80;16.83;;;17.80;99.90;;;;;;5051565;28;20186;-67
2021/09/26 07:06:29;;;;;;;17.20;15.53;;;18.00;99.90;;;;;;5066088;28;20673;-67
2021/09/26 07:08:54;;;;;;;16.87;15.17;;;18.20;99.90;;;;;;5071307;28;20249;-67
2021/09/26 07:11:21;;;;;;;17.17;15.40;;;18.30;99.90;;;;;;5058605;28;20178;-66
2021/09/26 07:13:47;;;;;;;18.37;16.47;;;18.40;99.90;;;;;;5051400;28;20179;-66
2021/09/26 07:16:13;;;;;;;17.83;16.33;;;18.40;99.90;;;;;;5052499;28;20175;-67
2021/09/26 07:18:38;;;;;;;17.23;15.73;;;18.40;99.90;;;;;;5051504;28;20514;-67
2021/09/26 07:21:05;;;;;;;18.30;16.37;;;18.40;99.90;;;;;;5059759;28;20233;-67
2021/09/26 07:23:31;;;;;;;16.90;15.47;;;18.50;99.90;;;;;;5071435;28;20558;-67
2021/09/26 07:25:57;;;;;;;16.90;15.37;;;18.70;99.90;;;;;;5065933;28;20253;-67
2021/09/26 07:28:22;;;;;;;16.90;14.93;;;19.00;99.90;;;;;;5071536;28;20289;-66
2021/09/26 07:30:48;;;;;;;18.03;15.67;;;19.30;99.90;;;;;;5060172;28;20659;-67
2021/09/26 07:33:14;;;;;;;17.07;15.57;;;19.50;99.90;;;;;;5051339;28;20647;-67
2021/09/26 07:35:40;;;;;;;18.13;16.37;;;19.70;99.90;;;;;;5059544;28;20228;-66
2021/09/26 07:38:05;;;;;;;17.97;16.50;;;19.70;99.90;;;;;;5071088;28;20312;-66
2021/09/26 07:40:31;;;;;;;15.77;14.33;;;20.00;99.90;;;;;;5064041;28;20171;-67
2021/09/26 07:42:57;;;;;;;15.90;14.40;;;20.20;99.90;;;;;;5051066;28;20656;-66
2021/09/26 07:45:22;;;;;;;15.03;13.73;;;20.40;99.90;;;;;;5051394;28;20611;-67
2021/09/26 07:47:48;;;;;;;17.17;15.60;;;20.70;99.90;;;;;;5050978;28;20205;-66
2021/09/26 07:50:14;;;;;;;15.10;13.88;;;20.90;99.90;;;;;;5053594;28;20178;-67
2021/09/26 07:52:40;;;;;;;15.15;13.60;;;21.20;99.90;;;;;;5070895;28;20166;-67
2021/09/26 07:55:06;;;;;;;14.05;12.65;;;21.50;99.90;;;;;;5071046;28;20193;-67
2021/09/26 07:57:32;;;;;;;13.93;12.55;;;21.80;99.90;;;;;;5071393;28;20277;-67
2021/09/26 07:59:58;;;;;;;12.90;11.85;;;22.00;99.90;;;;;;5051865;28;20297;-67
2021/09/26 08:02:24;;;;;;;12.77;11.57;;;22.30;99.90;;;;;;5050942;28;20258;-64
2021/09/26 08:04:50;;;;;;;13.77;12.43;;;22.70;99.90;;;;;;5067222;28;20206;-69
2021/09/26 08:07:15;;;;;;;14.13;12.88;;;22.70;99.90;;;;;;5074069;28;20186;-67
2021/09/26 08:09:41;;;;;;;12.82;11.73;;;22.70;99.90;;;;;;5059976;28;20570;-67
2021/09/26 08:12:08;;;;;;;13.80;12.45;;;22.90;99.90;;;;;;5054796;28;20172;-68
2021/09/26 08:14:34;;;;;;;16.10;11.52;;;23.10;99.90;;;;;;5068075;28;20268;-65
2021/09/26 08:17:01;;;;;;;12.82;11.73;;;23.40;99.90;;;;;;5074248;28;20270;-65
2021/09/26 08:19:27;;;;;;;12.00;11.00;;;23.60;99.90;;;;;;5070539;28;20220;-67
2021/09/26 08:21:52;;;;;;;12.52;11.30;;;23.70;99.90;;;;;;5074613;28;20170;-65
2021/09/26 08:24:19;;;;;;;13.05;11.52;;;23.70;99.90;;;;;;5072714;28;20289;-64
2021/09/26 08:26:44;;;;;;;11.88;10.88;;;23.80;99.90;;;;;;5074311;28;20200;-65
2021/09/26 08:29:10;;;;;;;11.00;10.10;;;24.10;99.90;;;;;;5066416;28;20174;-65
2021/09/26 08:31:35;;;;;;;10.63;9.73;;;24.40;99.90;;;;;;5056066;28;20167;-67
2021/09/26 08:34:01;;;;;;;10.30;9.30;;;24.80;99.90;;;;;;5074247;28;20178;-65
2021/09/26 08:36:27;;;;;;;10.90;9.93;;;24.90;99.90;;;;;;5055942;28;20277;-65
2021/09/26 08:38:53;;;;;;;10.82;9.75;;;25.10;99.90;;;;;;5066070;28;20231;-65
2021/09/26 08:41:19;;;;;;;10.63;9.63;;;25.30;99.90;;;;;;5074031;28;20174;-65
2021/09/26 08:43:49;;;;;;;10.95;9.85;;;25.40;99.90;;;;;;5063154;28;20571;-65
2021/09/26 08:46:17;;;;;;;9.85;8.85;;;25.70;99.90;;;;;;5054111;28;20564;-65
2021/09/26 08:48:43;;;;;;;10.07;9.18;;;26.00;99.90;;;;;;5063417;28;20185;-65
2021/09/26 08:51:10;;;;;;;9.63;8.10;;;26.20;99.90;;;;;;5073693;28;20166;-65
2021/09/26 08:53:35;;;;;;;9.73;8.93;;;26.50;99.90;;;;;;5066457;28;20674;-65
2021/09/26 08:56:02;;;;;;;9.05;8.25;;;26.50;99.90;;;;;;5054458;28;20261;-64
2021/09/26 08:58:27;;;;;;;9.68;8.15;;;26.20;99.90;;;;;;5060113;28;20264;-64
2021/09/26 09:00:53;;;;;;;9.20;8.32;;;26.10;99.90;;;;;;5073366;28;20299;-63
2021/09/26 09:03:19;;;;;;;8.63;7.85;;;26.10;99.90;;;;;;5071821;28;20189;-64
2021/09/26 09:05:53;;;;;;;10.60;7.72;;;26.40;99.90;;;;;;5058423;28;20179;-65
2021/09/26 09:08:22;;;;;;;8.60;7.80;;;27.00;99.90;;;;;;5053636;28;20667;-64
2021/09/26 09:10:54;;;;;;;8.15;7.45;;;27.40;99.90;;;;;;5053391;28;20190;-64
2021/09/26 09:13:28;;;;;;;7.20;6.50;;;27.90;99.90;;;;;;5053610;28;20647;-64
2021/09/26 09:16:00;;;;;;;7.88;7.18;;;28.10;99.90;;;;;;5053530;28;20257;-64
2021/09/26 09:18:56;;;;;;;8.60;7.80;;;28.30;99.90;;;;;;5052415;28;20174;-64
2021/09/26 09:21:28;;;;;;;7.63;6.93;;;28.50;99.90;;;;;;5053292;28;20596;-65
2021/09/26 09:24:24;;;;;;;7.93;7.05;;;28.30;99.90;;;;;;5053541;28;20197;-64
2021/09/26 09:26:51;;;;;;;7.38;6.72;;;28.30;99.90;;;;;;5053177;28;20183;-64
2021/09/26 09:29:18;;;;;;;7.38;6.68;;;28.20;99.90;;;;;;5052908;28;20185;-65
2021/09/26 09:31:52;;;;;;;7.63;6.80;;;28.30;99.90;;;;;;5053103;28;20174;-64
2021/09/26 09:34:34;;;;;;;7.75;7.05;;;28.20;99.90;;;;;;5053594;28;20174;-64
2021/09/26 09:37:24;;;;;;;8.93;6.75;;;28.00;99.90;;;;;;5060449;23;20321;-65
2021/09/26 09:40:06;;;;;;;7.78;7.28;;;28.20;99.90;;;;;;5052775;28;20163;-65
2021/09/26 09:42:42;;;;;;;6.43;5.82;;;28.00;99.90;;;;;;5053272;28;20636;-65
2021/09/26 09:45:17;;;;;;;7.63;6.80;;;27.70;99.90;;;;;;5052856;28;20267;-64
2021/09/26 09:48:02;;;;;;;8.05;7.35;;;27.20;99.90;;;;;;5053071;28;20182;-64
2021/09/26 09:50:40;;;;;;;7.30;6.57;;;27.40;99.90;;;;;;5052740;28;20171;-64
2021/09/26 09:53:07;;;;;;;7.15;6.57;;;27.50;99.90;;;;;;5052709;28;20190;-65
2021/09/26 09:55:34;;;;;;;8.00;6.65;;;27.10;99.90;;;;;;5052913;28;20182;-64
2021/09/26 09:58:19;;;;;;;8.32;5.90;;;27.60;99.90;;;;;;5049578;28;20709;-66
2021/09/26 10:00:57;;;;;;;7.15;6.55;;;27.80;99.90;;;;;;5032395;28;20182;-65
2021/09/26 10:03:39;;;;;;;7.20;6.53;;;28.00;99.90;;;;;;5034373;28;20181;-64
2021/09/26 10:06:41;;;;;;;7.20;6.43;;;28.20;99.90;;;;;;5034657;28;20199;-64
2021/09/26 10:09:20;;;;;;;6.05;5.47;;;28.30;99.90;;;;;;5041799;28;20611;-64
2021/09/26 10:11:59;;;;;;;7.32;6.05;;;28.20;99.90;;;;;;5050859;28;20178;-63
2021/09/26 10:14:27;;;;;;;6.80;6.13;;;28.50;99.90;;;;;;5052829;28;20182;-66
2021/09/26 10:16:54;;;;;;;8.00;6.15;;;28.90;99.90;;;;;;5044284;28;20704;-65
2021/09/26 10:19:22;;;;;;;6.40;5.70;;;29.10;99.90;;;;;;5031046;28;20172;-67
2021/09/26 10:21:51;;;;;;;7.80;5.65;;;29.40;99.90;;;;;;5051924;28;20645;-64
2021/09/26 10:24:23;;;;;;;6.05;5.45;;;29.70;99.90;;;;;;5052050;28;20209;-65
2021/09/26 10:26:50;;;;;;;6.82;6.15;;;29.50;99.90;;;;;;5032335;28;20196;-64
2021/09/26 10:29:19;;;;;;;7.20;6.10;;;29.20;99.90;;;;;;5034191;28;20709;-65
2021/09/26 10:31:50;;;;;;;7.78;6.60;;;28.70;99.90;;;;;;5032305;28;20224;-66
2021/09/26 10:34:17;;;;;;;6.43;5.80;;;28.50;99.90;;;;;;5035356;28;20190;-64
2021/09/26 10:36:44;;;;;;;6.75;6.15;;;28.50;99.90;;;;;;5038624;28;20247;-64
2021/09/26 10:39:11;;;;;;;6.53;5.78;;;28.20;99.90;;;;;;5051672;28;20529;-64
2021/09/26 10:42:10;;;;;;;5.75;5.25;;;28.30;99.90;;;;;;5046424;28;20183;-63
2021/09/26 10:45:00;;;;;;;6.82;6.18;;;28.60;99.90;;;;;;5031132;28;20203;-62
2021/09/26 10:47:30;;;;;;;6.10;5.32;;;28.90;99.90;;;;;;5042931;28;20227;-64
2021/09/26 10:50:12;;;;;;;8.18;5.82;;;28.50;99.90;;;;;;5050740;28;20183;-63
2021/09/26 10:52:43;;;;;;;6.95;5.65;;;28.20;99.90;;;;;;5038947;28;20179;-64
2021/09/26 10:55:14;;;;;;;8.82;6.13;;;27.60;99.90;;;;;;5031640;28;20529;-64
2021/09/26 10:57:44;;;;;;;7.10;5.45;;;27.10;99.90;;;;;;5032638;28;20195;-63
2021/09/26 11:00:14;;;;;;;6.55;5.95;;;26.60;99.90;;;;;;5029726;28;20172;-63
2021/09/26 11:02:45;;;;;;;11.20;5.75;;;26.10;99.90;;;;;;5043056;28;20178;-64
2021/09/26 11:05:32;;;;;;;8.55;6.53;;;26.00;99.90;;;;;;5050270;28;20555;-63
2021/09/26 11:07:58;;;;;;;11.30;5.90;;;25.90;99.90;;;;;;5037626;28;20203;-64
2021/09/26 11:10:39;;;;;;;10.15;5.70;;;25.90;99.90;;;;;;5031397;28;20175;-63
2021/09/26 11:13:09;;;;;;;9.10;6.18;;;25.60;99.90;;;;;;5043422;28;20269;-63
2021/09/26 11:15:58;;;;;;;7.55;6.57;;;25.60;99.90;;;;;;5051501;28;20171;-63
2021/09/26 11:18:50;;;;;;;6.85;5.95;;;25.30;99.90;;;;;;5035292;28;20195;-63
2021/09/26 11:21:37;;;;;;;7.45;6.22;;;25.00;99.90;;;;;;5031183;28;20163;-63
2021/09/26 11:24:09;;;;;;;8.57;5.78;;;24.80;99.90;;;;;;5030725;28;20202;-63
2021/09/26 11:27:00;;;;;;;9.00;6.07;;;24.70;99.90;;;;;;5049158;28;20171;-62
2021/09/26 11:29:30;;;;;;;11.35;6.80;;;24.70;99.90;;;;;;5050879;28;20179;-63
2021/09/26 11:31:57;;;;;;;7.55;6.82;;;24.80;99.90;;;;;;5031367;28;20179;-64
2021/09/26 11:34:45;;;;;;;10.32;6.97;;;24.90;99.90;;;;;;5031611;28;20541;-64
2021/09/26 11:37:12;;;;;;;11.10;6.47;;;25.00;99.90;;;;;;5031241;28;20206;-64
2021/09/26 11:39:40;;;;;;;8.13;6.53;;;24.90;99.90;;;;;;5031851;28;20229;-63
2021/09/26 11:42:32;;;;;;;7.03;6.32;;;24.80;99.90;;;;;;5055305;28;20182;-64
2021/09/26 11:44:59;;;;;;;8.38;6.63;;;24.70;99.90;;;;;;5045026;28;20205;-64
2021/09/26 11:47:26;;;;;;;7.18;6.45;;;24.40;99.90;;;;;;5035853;28;20199;-64
2021/09/26 11:49:52;;;;;;;8.82;6.68;;;24.30;99.90;;;;;;5054818;28;20177;-67
2021/09/26 11:52:21;;;;;;;7.18;6.57;;;24.40;99.90;;;;;;5043750;28;20179;-65
2021/09/26 11:54:47;;;;;;;8.05;7.10;;;24.40;99.90;;;;;;5035066;28;20580;-65
2021/09/26 11:57:13;;;;;;;7.03;6.30;;;24.40;99.90;;;;;;5044907;28;20198;-64
2021/09/26 11:59:41;;;;;;;7.40;6.53;;;24.40;99.90;;;;;;5054842;28;20193;-65
2021/09/26 12:02:14;;;;;;;8.27;7.68;;;24.20;99.90;;;;;;5046364;28;20194;-64
2021/09/26 12:04:40;;;;;;;8.00;6.55;;;24.10;99.90;;;;;;5035096;28;20191;-65
2021/09/26 12:07:08;;;;;;;8.32;7.10;;;24.20;99.90;;;;;;5042529;28;20567;-65
2021/09/26 12:09:42;;;;;;;9.30;6.95;;;24.30;99.90;;;;;;5054598;28;20163;-65
2021/09/26 12:12:28;;;;;;;7.80;6.15;;;24.40;99.90;;;;;;5046904;28;20171;-64
2021/09/26 12:15:09;;;;;;;7.10;6.53;;;24.50;99.90;;;;;;5034771;28;20187;-64
2021/09/26 12:17:37;;;;;;;7.93;6.88;;;24.50;99.90;;;;;;5045516;28;20245;-65
2021/09/26 12:20:09;;;;;;;7.00;6.40;;;24.60;99.90;;;;;;5054250;28;20167;-65
2021/09/26 12:22:35;;;;;;;6.65;6.00;;;24.70;99.90;;;;;;5043332;28;20266;-64
2021/09/26 12:25:07;;;;;;;7.80;7.13;;;24.80;99.90;;;;;;5034181;28;20282;-65
2021/09/26 12:27:50;;;;;;;8.50;6.13;;;24.90;99.90;;;;;;5043874;28;20289;-65
2021/09/26 12:30:20;;;;;;;7.20;6.50;;;24.80;99.90;;;;;;5046453;28;20548;-64
2021/09/26 12:32:56;;;;;;;6.18;5.57;;;24.70;99.90;;;;;;5034410;28;20171;-65
2021/09/26 12:35:46;;;;;;;8.30;7.25;;;24.60;99.90;;;;;;5034398;28;20210;-64
2021/09/26 12:38:31;;;;;;;8.88;6.00;;;24.20;99.90;;;;;;5037100;28;20225;-64
2021/09/26 12:40:57;;;;;;;7.57;6.68;;;23.90;99.90;;;;;;5053641;28;20325;-66
2021/09/26 12:43:26;;;;;;;7.15;6.55;;;23.60;99.90;;;;;;5049872;28;20254;-66
2021/09/26 12:45:53;;;;;;;6.43;6.03;;;23.60;99.90;;;;;;5034001;28;20171;-66